Terminal Aerodrome Forecast
Issued by NWS

Current Version | Previous Version | Text Only | Print | Product List | Glossary On
Versions: 1 2 3 4 5 6 7 8 9 10 11 12 13 14 15 16 17 18 19 20 21 22 23 24 25 26 27 28 29 30 31 32 33 34 35 36 37 38 39 40 41 42 43 44 45 46 47
000
FTUS41 KCTP 230845 AAB
TAFBFD
TAF AMD
KBFD 230845Z 2309/2406 35008KT P6SM OVC010
      TEMPO 2310/2312 OVC008
     FM231300 34013G23KT P6SM OVC015
     FM231700 33014G23KT P6SM SCT040
     FM232300 32007KT P6SM FEW025=

USA.gov is the U.S. government's official web portal to all federal, state and local government web resources and services.